createdAt,value
2022-08-08T00:00:50.390Z,19.67
2022-08-08T00:02:32.912Z,19.64
2022-08-08T00:05:09.600Z,19.60
2022-08-08T00:07:51.478Z,19.56
2022-08-08T00:10:28.132Z,19.55
2022-08-08T00:13:10.322Z,19.53
2022-08-08T00:15:57.664Z,19.49
2022-08-08T00:18:30.628Z,19.45
2022-08-08T00:21:00.707Z,19.42
2022-08-08T00:23:42.532Z,19.39
2022-08-08T00:26:12.887Z,19.36
2022-08-08T00:28:44.869Z,19.31
2022-08-08T00:32:20.361Z,19.26
2022-08-08T00:34:57.561Z,19.20
2022-08-08T00:38:01.750Z,19.15
2022-08-08T00:41:12.737Z,19.12
2022-08-08T00:43:41.009Z,19.09
2022-08-08T00:46:17.327Z,19.06
2022-08-08T00:49:01.014Z,19.02
2022-08-08T00:52:06.493Z,18.97
2022-08-08T00:55:09.425Z,18.91
2022-08-08T00:58:13.569Z,18.84
2022-08-08T01:00:57.658Z,18.80
2022-08-08T01:04:01.252Z,18.74
2022-08-08T01:06:40.351Z,18.71
2022-08-08T01:09:40.933Z,18.64
2022-08-08T01:12:36.814Z,18.59
2022-08-08T01:15:43.846Z,18.56
2022-08-08T01:19:02.725Z,18.49
2022-08-08T01:22:15.630Z,18.44
2022-08-08T01:24:53.893Z,18.39
2022-08-08T01:27:44.571Z,18.38
2022-08-08T01:30:53.771Z,18.32
2022-08-08T01:33:42.931Z,18.28
2022-08-08T01:36:54.914Z,18.26
2022-08-08T01:39:49.270Z,18.21
2022-08-08T01:42:36.797Z,18.17
2022-08-08T01:45:28.979Z,18.17
2022-08-08T01:48:31.758Z,18.13
2022-08-08T01:51:55.277Z,18.09
2022-08-08T01:55:27.052Z,18.05
2022-08-08T01:57:19.525Z,18.04
2022-08-08T02:00:17.409Z,18.03
2022-08-08T02:03:54.571Z,18.02
2022-08-08T02:06:09.100Z,18.01
2022-08-08T02:09:03.564Z,18.01
2022-08-08T02:11:59.117Z,18.01
2022-08-08T02:14:56.017Z,17.99
2022-08-08T02:17:42.666Z,17.98
2022-08-08T02:21:02.606Z,17.96
2022-08-08T02:23:31.681Z,17.92
2022-08-08T02:26:46.013Z,17.86
2022-08-08T02:29:46.668Z,17.84
2022-08-08T02:32:27.257Z,17.83
2022-08-08T02:35:07.548Z,17.77
2022-08-08T02:37:56.850Z,17.72
2022-08-08T02:40:45.264Z,17.64
2022-08-08T02:44:38.506Z,17.56
2022-08-08T02:47:08.408Z,17.47
2022-08-08T02:49:54.096Z,17.42
2022-08-08T02:52:55.915Z,17.37
2022-08-08T02:56:03.154Z,17.33
2022-08-08T02:58:44.394Z,17.29
2022-08-08T03:01:49.971Z,17.24
2022-08-08T03:05:08.298Z,17.22
2022-08-08T03:07:41.363Z,17.18
2022-08-08T03:10:33.468Z,17.13
2022-08-08T03:15:58.342Z,17.09
2022-08-08T03:16:37.257Z,17.05
2022-08-08T03:19:50.470Z,17.02
2022-08-08T03:22:51.077Z,16.99
2022-08-08T03:25:09.065Z,16.97
2022-08-08T03:27:46.857Z,16.97
2022-08-08T03:30:18.975Z,16.94
2022-08-08T03:33:07.467Z,16.94
2022-08-08T03:35:38.979Z,16.89
2022-08-08T03:38:57.512Z,16.87
2022-08-08T03:40:55.418Z,16.86
2022-08-08T03:43:22.048Z,16.81
2022-08-08T03:46:06.098Z,16.80
2022-08-08T03:49:09.491Z,16.77
2022-08-08T03:51:26.586Z,16.76
2022-08-08T03:54:07.262Z,16.76
2022-08-08T03:56:34.954Z,16.74
2022-08-08T03:59:02.204Z,16.74
2022-08-08T04:02:12.962Z,16.72
2022-08-08T04:04:30.455Z,16.71
2022-08-08T04:07:00.905Z,16.73
2022-08-08T04:09:28.191Z,16.74
2022-08-08T04:12:06.470Z,16.75
2022-08-08T04:14:38.125Z,16.76
2022-08-08T04:17:06.959Z,16.78
2022-08-08T04:19:42.197Z,16.79
2022-08-08T04:22:08.860Z,16.80
2022-08-08T04:24:36.435Z,16.81
2022-08-08T04:27:10.544Z,16.83
2022-08-08T04:29:55.341Z,16.86
2022-08-08T04:32:30.293Z,16.91
2022-08-08T04:35:08.053Z,16.95
2022-08-08T04:37:39.692Z,16.98
2022-08-08T04:40:10.657Z,17.03
2022-08-08T04:42:46.597Z,17.09
2022-08-08T04:45:23.541Z,17.15
2022-08-08T04:47:51.999Z,17.20
2022-08-08T04:50:23.840Z,17.25
2022-08-08T04:53:00.620Z,17.23
2022-08-08T04:55:47.677Z,17.29
2022-08-08T04:58:18.026Z,17.30
2022-08-08T05:00:44.504Z,17.33
2022-08-08T05:03:13.995Z,17.37
2022-08-08T05:05:45.780Z,17.38
2022-08-08T05:08:13.773Z,17.46
2022-08-08T05:10:40.338Z,17.51
2022-08-08T05:13:12.738Z,17.55
2022-08-08T05:16:51.734Z,17.62
2022-08-08T05:18:30.908Z,17.65
2022-08-08T05:20:57.413Z,17.70
2022-08-08T05:23:24.937Z,17.76
2022-08-08T05:26:00.359Z,17.78
2022-08-08T05:28:55.811Z,17.81
2022-08-08T05:32:02.354Z,17.86
2022-08-08T05:34:01.330Z,17.91
2022-08-08T05:36:30.384Z,17.94
2022-08-08T05:38:57.794Z,17.95
2022-08-08T05:41:25.955Z,17.99
2022-08-08T05:44:04.923Z,18.05
2022-08-08T05:46:32.779Z,18.07
2022-08-08T05:48:59.468Z,18.08
2022-08-08T05:51:27.112Z,18.11
2022-08-08T05:54:27.772Z,18.11
2022-08-08T05:57:00.750Z,18.14
2022-08-08T05:59:59.552Z,18.19
2022-08-08T06:02:40.893Z,18.28
2022-08-08T06:05:32.996Z,18.33
2022-08-08T06:08:02.772Z,18.42
2022-08-08T06:10:38.595Z,18.47
2022-08-08T06:13:07.540Z,18.56
2022-08-08T06:15:50.908Z,18.60
2022-08-08T06:18:22.317Z,18.70
2022-08-08T06:20:58.365Z,18.74
2022-08-08T06:23:49.019Z,18.82
2022-08-08T06:26:38.518Z,18.85
2022-08-08T06:29:10.731Z,18.95
2022-08-08T06:32:11.386Z,19.01
2022-08-08T06:34:56.234Z,19.09
2022-08-08T06:37:37.478Z,19.13
2022-08-08T06:40:10.482Z,19.08
2022-08-08T06:43:05.119Z,19.12
2022-08-08T06:45:33.953Z,19.22
2022-08-08T06:48:02.362Z,19.28
2022-08-08T06:50:33.787Z,19.38
2022-08-08T06:53:09.881Z,19.38
2022-08-08T06:55:42.057Z,19.50
2022-08-08T06:58:09.821Z,19.59
2022-08-08T07:00:40.941Z,19.65
2022-08-08T07:03:51.622Z,19.73
2022-08-08T07:06:02.335Z,19.81
2022-08-08T07:08:39.478Z,19.87
2022-08-08T07:11:09.092Z,19.95
2022-08-08T07:14:00.993Z,20.01
2022-08-08T07:16:54.584Z,20.11
2022-08-08T07:19:37.228Z,20.18
2022-08-08T07:22:12.096Z,20.27
2022-08-08T07:24:54.475Z,20.36
2022-08-08T07:27:35.352Z,20.43
2022-08-08T07:30:14.921Z,20.51
2022-08-08T07:32:47.857Z,20.53
2022-08-08T07:35:15.244Z,20.57
2022-08-08T07:38:04.389Z,20.69
2022-08-08T07:40:35.465Z,20.77
2022-08-08T07:43:08.811Z,20.83
2022-08-08T07:45:51.469Z,20.94
2022-08-08T07:48:23.565Z,21.03
2022-08-08T07:50:51.834Z,21.10
2022-08-08T07:54:00.823Z,21.17
2022-08-08T07:56:16.458Z,21.21
2022-08-08T07:59:03.466Z,21.32
2022-08-08T08:02:34.636Z,21.37
2022-08-08T08:04:26.007Z,21.52
2022-08-08T08:06:53.846Z,21.57
2022-08-08T08:09:26.452Z,21.70
2022-08-08T08:11:53.690Z,21.77
2022-08-08T08:14:33.358Z,21.86
2022-08-08T08:17:01.257Z,21.94
2022-08-08T08:19:45.915Z,21.97
2022-08-08T08:22:25.485Z,22.06
2022-08-08T08:24:59.056Z,22.06
2022-08-08T08:27:34.281Z,22.16
2022-08-08T08:30:00.728Z,22.30
2022-08-08T08:32:35.823Z,22.37
2022-08-08T08:35:04.698Z,22.51
2022-08-08T08:37:32.168Z,22.59
2022-08-08T08:40:01.919Z,22.68
2022-08-08T08:42:35.626Z,22.71
2022-08-08T08:45:21.432Z,22.79
2022-08-08T08:47:53.625Z,22.84
2022-08-08T08:50:33.008Z,22.91
2022-08-08T08:53:28.263Z,22.96
2022-08-08T08:55:55.178Z,23.02
2022-08-08T08:58:37.957Z,23.09
2022-08-08T09:01:09.726Z,23.15
2022-08-08T09:03:46.613Z,23.22
2022-08-08T09:06:33.129Z,23.29
2022-08-08T09:09:26.021Z,23.33
2022-08-08T09:12:08.090Z,23.45
2022-08-08T09:14:35.647Z,23.56
2022-08-08T09:17:15.802Z,23.64
2022-08-08T09:21:57.972Z,23.71
2022-08-08T09:22:34.420Z,23.69
2022-08-08T09:25:01.199Z,23.73
2022-08-08T09:27:55.965Z,23.80
2022-08-08T09:30:17.465Z,23.88
2022-08-08T09:33:12.341Z,23.96
2022-08-08T09:35:38.173Z,23.99
2022-08-08T09:38:24.356Z,24.03
2022-08-08T09:40:57.616Z,24.14
2022-08-08T09:44:03.035Z,24.15
2022-08-08T09:46:25.526Z,24.19
2022-08-08T09:48:57.906Z,24.29
2022-08-08T09:52:06.678Z,24.35
2022-08-08T09:54:41.498Z,24.32
2022-08-08T09:57:16.016Z,24.39
2022-08-08T10:00:01.889Z,24.42
2022-08-08T10:02:34.950Z,24.49
2022-08-08T10:05:25.665Z,24.54
2022-08-08T10:07:52.322Z,24.58
2022-08-08T10:10:30.364Z,24.68
2022-08-08T10:13:06.030Z,24.73
2022-08-08T10:15:59.404Z,24.84
2022-08-08T10:18:33.548Z,24.89
2022-08-08T10:21:25.145Z,24.96
2022-08-08T10:24:04.060Z,25.06
2022-08-08T10:26:57.416Z,24.99
2022-08-08T10:29:44.036Z,25.12
2022-08-08T10:32:34.127Z,25.15
2022-08-08T10:36:09.022Z,25.21
2022-08-08T10:38:15.327Z,25.22
2022-08-08T10:40:45.574Z,25.30
2022-08-08T10:43:12.138Z,25.35
2022-08-08T10:45:56.078Z,25.43
2022-08-08T10:48:57.610Z,25.51
2022-08-08T10:51:24.189Z,25.63
2022-08-08T10:53:57.735Z,25.70
2022-08-08T10:56:26.956Z,25.81
2022-08-08T10:58:58.186Z,25.90
2022-08-08T11:01:29.008Z,25.92
2022-08-08T11:04:02.530Z,26.03
2022-08-08T11:06:34.462Z,26.09
2022-08-08T11:09:03.794Z,26.12
2022-08-08T11:12:05.321Z,26.09
2022-08-08T11:14:30.470Z,26.09
2022-08-08T11:16:57.297Z,26.14
2022-08-08T11:19:26.424Z,26.21
2022-08-08T11:21:56.077Z,26.28
2022-08-08T11:24:26.334Z,26.28
2022-08-08T11:26:57.083Z,26.34
2022-08-08T11:29:41.441Z,26.39
2022-08-08T11:32:13.310Z,26.44
2022-08-08T11:35:05.726Z,26.45
2022-08-08T11:38:35.978Z,26.42
2022-08-08T11:40:16.767Z,26.55
2022-08-08T11:42:49.118Z,26.54
2022-08-08T11:45:18.153Z,26.64
2022-08-08T11:48:05.060Z,26.64
2022-08-08T11:50:32.294Z,26.64
2022-08-08T11:53:00.787Z,26.63
2022-08-08T11:55:35.307Z,26.56
2022-08-08T11:58:15.086Z,26.55
2022-08-08T12:00:50.485Z,26.56
2022-08-08T12:03:30.793Z,26.56
2022-08-08T12:05:58.527Z,26.59
2022-08-08T12:08:34.430Z,26.62
2022-08-08T12:11:02.609Z,26.58
2022-08-08T12:13:38.163Z,26.76
2022-08-08T12:16:20.321Z,26.84
2022-08-08T12:18:57.319Z,26.94
2022-08-08T12:21:59.538Z,27.02
2022-08-08T12:24:28.064Z,26.99
2022-08-08T12:26:58.486Z,27.08
2022-08-08T12:29:41.913Z,27.11
2022-08-08T12:32:19.833Z,26.96
2022-08-08T12:34:50.469Z,27.00
2022-08-08T12:37:21.512Z,26.89
2022-08-08T12:40:00.180Z,27.08
2022-08-08T12:42:33.926Z,27.15
2022-08-08T12:45:58.382Z,27.22
2022-08-08T12:48:09.717Z,27.25
2022-08-08T12:50:49.533Z,27.24
2022-08-08T12:53:29.961Z,27.29
2022-08-08T12:56:19.054Z,27.24
2022-08-08T12:58:51.643Z,27.36
2022-08-08T13:01:34.548Z,27.43
2022-08-08T13:04:18.489Z,27.53
2022-08-08T13:07:07.611Z,27.60
2022-08-08T13:10:04.100Z,27.55
2022-08-08T13:12:35.655Z,27.65
2022-08-08T13:15:22.299Z,27.62
2022-08-08T13:18:09.932Z,27.57
2022-08-08T13:20:44.562Z,27.58
2022-08-08T13:23:35.928Z,27.64
2022-08-08T13:26:13.132Z,27.74
2022-08-08T13:28:42.304Z,27.77
2022-08-08T13:31:16.517Z,27.86
2022-08-08T13:33:46.290Z,27.89
2022-08-08T13:36:14.162Z,27.93
2022-08-08T13:38:41.109Z,27.92
2022-08-08T13:41:16.101Z,27.95
2022-08-08T13:43:46.637Z,28.01
2022-08-08T13:46:27.135Z,28.07
2022-08-08T13:49:12.344Z,27.99
2022-08-08T13:52:05.712Z,27.97
2022-08-08T13:54:34.241Z,27.97
2022-08-08T13:57:04.090Z,27.97
2022-08-08T13:59:39.319Z,28.02
2022-08-08T14:02:32.809Z,28.09
2022-08-08T14:05:09.229Z,28.11
2022-08-08T14:07:49.913Z,28.19
2022-08-08T14:10:33.838Z,28.29
2022-08-08T14:13:20.762Z,28.17
2022-08-08T14:16:02.314Z,28.33
2022-08-08T14:18:36.139Z,28.35
2022-08-08T14:21:20.931Z,28.39
2022-08-08T14:24:03.946Z,28.37
2022-08-08T14:26:41.552Z,28.29
2022-08-08T14:29:28.498Z,28.27
2022-08-08T14:32:09.036Z,28.33
2022-08-08T14:34:39.891Z,28.31
2022-08-08T14:37:10.092Z,28.40
2022-08-08T14:40:05.932Z,28.40
2022-08-08T14:42:36.824Z,28.41
2022-08-08T14:45:29.019Z,28.43
2022-08-08T14:48:02.895Z,28.41
2022-08-08T14:50:38.193Z,28.39
2022-08-08T14:53:14.195Z,28.31
2022-08-08T14:55:43.058Z,28.39
2022-08-08T14:58:16.094Z,28.10
2022-08-08T15:00:48.154Z,28.30
2022-08-08T15:03:17.289Z,28.35
2022-08-08T15:05:54.224Z,28.43
2022-08-08T15:08:34.476Z,28.50
2022-08-08T15:11:06.475Z,28.57
2022-08-08T15:13:34.981Z,28.55
2022-08-08T15:16:11.779Z,28.51
2022-08-08T15:18:40.053Z,28.53
2022-08-08T15:21:10.604Z,28.51
2022-08-08T15:23:37.602Z,28.51
2022-08-08T15:26:04.102Z,28.53
2022-08-08T15:28:33.966Z,28.51
2022-08-08T15:31:01.223Z,28.51
2022-08-08T15:33:38.457Z,28.59
2022-08-08T15:36:17.622Z,28.70
2022-08-08T15:38:50.303Z,28.67
2022-08-08T15:41:17.388Z,28.62
2022-08-08T15:44:01.019Z,28.54
2022-08-08T15:46:34.766Z,28.49
2022-08-08T15:49:04.063Z,28.35
2022-08-08T15:51:33.616Z,28.39
2022-08-08T15:54:00.786Z,28.33
2022-08-08T15:56:27.280Z,28.32
2022-08-08T15:58:53.706Z,28.26
2022-08-08T16:01:21.054Z,28.22
2022-08-08T16:03:51.915Z,28.12
2022-08-08T16:06:27.665Z,28.18
2022-08-08T16:13:01.178Z,28.22
2022-08-08T16:13:21.333Z,28.14
2022-08-08T16:14:32.847Z,28.21
2022-08-08T16:17:00.284Z,28.24
2022-08-08T16:19:27.393Z,28.22
2022-08-08T16:21:56.964Z,28.12
2022-08-08T16:24:23.707Z,28.19
2022-08-08T16:26:50.797Z,28.11
2022-08-08T16:29:37.161Z,28.17
2022-08-08T16:32:04.313Z,29.61
2022-08-08T16:34:38.186Z,29.03
2022-08-08T16:37:06.171Z,28.79
2022-08-08T16:40:02.308Z,28.55
2022-08-08T16:42:19.910Z,28.40
2022-08-08T16:44:54.784Z,28.39
2022-08-08T16:47:40.367Z,28.36
2022-08-08T16:50:13.689Z,29.28
2022-08-08T16:55:13.926Z,31.54
2022-08-08T16:55:55.275Z,32.26
2022-08-08T16:58:18.580Z,31.29
2022-08-08T17:00:48.454Z,30.68
2022-08-08T17:03:16.282Z,31.10
2022-08-08T17:05:51.120Z,31.70
2022-08-08T17:08:17.589Z,31.17
2022-08-08T17:10:57.646Z,30.74
2022-08-08T17:13:27.571Z,32.44
2022-08-08T17:16:15.266Z,33.55
2022-08-08T17:18:42.148Z,34.68
2022-08-08T17:21:10.103Z,35.01
2022-08-08T17:24:00.527Z,34.07
2022-08-08T17:26:28.962Z,32.89
2022-08-08T17:28:55.981Z,32.29
2022-08-08T17:31:44.768Z,31.76
2022-08-08T17:34:49.204Z,31.09
2022-08-08T17:37:02.641Z,30.51
2022-08-08T17:40:02.890Z,30.02
2022-08-08T17:42:18.532Z,29.70
2022-08-08T17:44:46.460Z,29.47
2022-08-08T17:47:24.350Z,29.24
2022-08-08T17:50:01.187Z,28.96
2022-08-08T17:52:31.049Z,28.75
2022-08-08T17:54:59.755Z,28.51
2022-08-08T17:57:28.803Z,28.40
2022-08-08T18:00:02.503Z,28.24
2022-08-08T18:02:30.121Z,28.12
2022-08-08T18:04:58.567Z,28.00
2022-08-08T18:08:11.402Z,27.86
2022-08-08T18:10:13.911Z,27.74
2022-08-08T18:12:40.983Z,27.64
2022-08-08T18:15:11.394Z,27.55
2022-08-08T18:18:09.276Z,27.44
2022-08-08T18:20:44.014Z,27.32
2022-08-08T18:23:14.914Z,27.20
2022-08-08T18:25:42.716Z,27.12
2022-08-08T18:28:12.975Z,27.03
2022-08-08T18:30:41.073Z,26.93
2022-08-08T18:33:07.527Z,26.78
2022-08-08T18:35:41.688Z,26.75
2022-08-08T18:38:17.342Z,26.67
2022-08-08T18:40:46.290Z,26.60
2022-08-08T18:43:16.690Z,26.53
2022-08-08T18:46:00.726Z,26.44
2022-08-08T18:48:30.195Z,26.34
2022-08-08T18:50:58.852Z,26.26
2022-08-08T18:54:00.817Z,26.19
2022-08-08T18:56:23.470Z,26.06
2022-08-08T18:58:49.909Z,26.00
2022-08-08T19:02:25.821Z,25.92
2022-08-08T19:04:12.618Z,25.84
2022-08-08T19:06:39.632Z,25.77
2022-08-08T19:09:13.470Z,25.69
2022-08-08T19:11:46.251Z,25.63
2022-08-08T19:14:13.622Z,25.55
2022-08-08T19:16:47.366Z,25.49
2022-08-08T19:19:14.788Z,25.44
2022-08-08T19:21:49.359Z,25.33
2022-08-08T19:24:33.968Z,25.29
2022-08-08T19:27:05.738Z,25.25
2022-08-08T19:29:40.811Z,25.20
2022-08-08T19:32:12.536Z,25.15
2022-08-08T19:34:41.367Z,25.10
2022-08-08T19:37:08.756Z,25.04
2022-08-08T19:39:43.214Z,24.98
2022-08-08T19:42:12.639Z,24.93
2022-08-08T19:44:45.439Z,24.88
2022-08-08T19:47:13.314Z,24.81
2022-08-08T19:49:40.005Z,24.75
2022-08-08T19:52:11.891Z,24.68
2022-08-08T19:54:39.834Z,24.64
2022-08-08T19:57:08.902Z,24.58
2022-08-08T19:59:36.139Z,24.51
2022-08-08T20:02:04.437Z,24.45
2022-08-08T20:04:33.173Z,24.41
2022-08-08T20:07:05.104Z,24.36
2022-08-08T20:09:55.988Z,24.29
2022-08-08T20:12:32.535Z,24.19
2022-08-08T20:15:14.641Z,24.17
2022-08-08T20:17:45.207Z,24.13
2022-08-08T20:20:12.595Z,24.11
2022-08-08T20:22:45.372Z,24.05
2022-08-08T20:25:14.264Z,23.96
2022-08-08T20:27:50.565Z,23.91
2022-08-08T20:30:35.575Z,23.87
2022-08-08T20:33:18.730Z,23.80
2022-08-08T20:35:59.582Z,23.72
2022-08-08T20:38:32.553Z,23.67
2022-08-08T20:41:17.138Z,23.63
2022-08-08T20:43:49.636Z,23.60
2022-08-08T20:46:17.398Z,23.55
2022-08-08T20:48:46.641Z,23.47
2022-08-08T20:51:14.371Z,23.43
2022-08-08T20:53:59.361Z,23.39
2022-08-08T20:56:35.698Z,23.24
2022-08-08T20:59:06.433Z,23.14
2022-08-08T21:02:06.670Z,23.11
2022-08-08T21:06:53.467Z,23.01
2022-08-08T21:09:21.529Z,22.95
2022-08-08T21:11:51.834Z,22.86
2022-08-08T21:14:33.668Z,22.79
2022-08-08T21:17:03.171Z,22.79
2022-08-08T21:19:33.982Z,22.79
2022-08-08T21:22:11.067Z,22.75
2022-08-08T21:24:37.517Z,22.66
2022-08-08T21:27:04.743Z,22.52
2022-08-08T21:30:02.948Z,22.49
2022-08-08T21:32:25.053Z,22.46
2022-08-08T21:34:56.555Z,22.40
2022-08-08T21:37:54.467Z,22.37
2022-08-08T21:40:31.361Z,22.36
2022-08-08T21:42:58.566Z,22.34
2022-08-08T21:48:01.969Z,22.31
2022-08-08T21:48:21.975Z,22.28
2022-08-08T21:50:56.654Z,22.23
2022-08-08T21:54:31.088Z,22.08
2022-08-08T21:56:26.705Z,22.05
2022-08-08T21:58:59.209Z,22.02
2022-08-08T22:01:39.207Z,21.98
2022-08-08T22:04:10.480Z,21.94
2022-08-08T22:06:40.354Z,21.91
2022-08-08T22:09:08.967Z,21.89
2022-08-08T22:11:58.792Z,21.85
2022-08-08T22:14:23.753Z,21.82
2022-08-08T22:16:53.639Z,21.79
2022-08-08T22:19:24.129Z,21.73
2022-08-08T22:21:51.688Z,21.72
2022-08-08T22:24:28.014Z,21.69
2022-08-08T22:27:01.167Z,21.66
2022-08-08T22:29:57.757Z,21.62
2022-08-08T22:32:15.918Z,21.58
2022-08-08T22:34:45.153Z,21.55
2022-08-08T22:37:49.826Z,21.50
2022-08-08T22:40:11.795Z,21.47
2022-08-08T22:42:42.839Z,21.41
2022-08-08T22:45:13.556Z,21.37
2022-08-08T22:47:41.502Z,21.30
2022-08-08T22:50:26.322Z,21.25
2022-08-08T22:54:28.402Z,21.24
2022-08-08T22:55:58.221Z,21.19
2022-08-08T22:58:28.583Z,21.14
2022-08-08T23:00:57.975Z,21.09
2022-08-08T23:03:34.141Z,21.06
2022-08-08T23:06:13.554Z,21.04
2022-08-08T23:08:44.703Z,20.98
2022-08-08T23:11:23.098Z,20.93
2022-08-08T23:14:01.085Z,20.89
2022-08-08T23:16:39.332Z,20.85
2022-08-08T23:19:09.442Z,20.83
2022-08-08T23:21:38.739Z,20.78
2022-08-08T23:24:06.600Z,20.74
2022-08-08T23:26:33.933Z,20.72
2022-08-08T23:29:00.624Z,20.67
2022-08-08T23:31:27.059Z,20.65
2022-08-08T23:34:17.001Z,20.63
2022-08-08T23:36:40.299Z,20.60
2022-08-08T23:39:07.524Z,20.57
2022-08-08T23:41:45.468Z,20.56
2022-08-08T23:44:13.975Z,20.56
2022-08-08T23:49:04.916Z,20.54
2022-08-08T23:49:26.846Z,20.44
2022-08-08T23:52:06.884Z,20.37
2022-08-08T23:54:53.165Z,20.33
2022-08-08T23:57:38.764Z,20.32
